createdAt,value
2019-02-21T00:02:02.940Z,45.83
2019-02-21T00:04:32.286Z,44.83
2019-02-21T00:07:01.583Z,56.67
2019-02-21T00:09:30.951Z,51.80
2019-02-21T00:12:00.242Z,47.77
2019-02-21T00:14:29.564Z,42.00
2019-02-21T00:16:58.908Z,31.27
2019-02-21T00:19:28.255Z,26.17
2019-02-21T00:21:57.558Z,28.57
2019-02-21T00:24:27.071Z,27.80
2019-02-21T00:26:56.386Z,25.13
2019-02-21T00:29:25.699Z,25.83
2019-02-21T00:31:54.995Z,29.03
2019-02-21T00:34:24.311Z,25.40
2019-02-21T00:36:53.619Z,26.20
2019-02-21T00:39:22.945Z,29.00
2019-02-21T00:41:52.283Z,27.13
2019-02-21T00:44:21.646Z,26.93
2019-02-21T00:46:50.989Z,27.53
2019-02-21T00:49:20.304Z,30.00
2019-02-21T00:51:49.610Z,29.33
2019-02-21T00:54:18.943Z,29.07
2019-02-21T00:56:48.264Z,26.87
2019-02-21T00:59:17.578Z,30.83
2019-02-21T01:01:47.139Z,28.33
2019-02-21T01:04:16.472Z,24.53
2019-02-21T01:06:45.853Z,27.23
2019-02-21T01:09:15.225Z,24.00
2019-02-21T01:11:44.872Z,23.60
2019-02-21T01:14:14.187Z,27.93
2019-02-21T01:16:43.555Z,23.63
2019-02-21T01:19:12.858Z,26.23
2019-02-21T01:21:42.190Z,29.67
2019-02-21T01:24:11.691Z,25.53
2019-02-21T01:26:41.024Z,30.20
2019-02-21T01:29:10.332Z,50.53
2019-02-21T01:31:39.643Z,39.77
2019-02-21T01:34:09.030Z,33.27
2019-02-21T01:36:38.354Z,28.47
2019-02-21T01:39:07.818Z,27.80
2019-02-21T01:41:37.139Z,30.50
2019-02-21T01:44:06.439Z,27.53
2019-02-21T01:46:35.758Z,25.03
2019-02-21T01:49:06.145Z,23.23
2019-02-21T01:51:35.454Z,22.37
2019-02-21T01:54:05.067Z,25.53
2019-02-21T01:56:34.402Z,25.30
2019-02-21T01:59:03.710Z,26.13
2019-02-21T02:01:33.110Z,23.00
2019-02-21T02:04:02.422Z,27.10
2019-02-21T02:06:31.746Z,26.83
2019-02-21T02:09:01.130Z,27.10
2019-02-21T02:11:32.042Z,24.73
2019-02-21T02:14:01.373Z,25.43
2019-02-21T02:16:30.688Z,27.83
2019-02-21T02:19:00.174Z,28.50
2019-02-21T02:21:29.494Z,26.13
2019-02-21T02:23:58.819Z,24.60
2019-02-21T02:26:28.140Z,25.67
2019-02-21T02:28:57.452Z,30.87
2019-02-21T02:31:26.783Z,25.43
2019-02-21T02:33:56.167Z,27.93
2019-02-21T02:36:25.503Z,28.00
2019-02-21T02:38:54.826Z,26.33
2019-02-21T02:41:24.133Z,32.90
2019-02-21T02:43:53.445Z,23.63
2019-02-21T02:46:22.742Z,29.23
2019-02-21T02:48:52.046Z,28.20
2019-02-21T02:51:21.359Z,28.60
2019-02-21T02:53:50.747Z,29.33
2019-02-21T02:56:20.054Z,35.13
2019-02-21T02:58:49.371Z,27.90
2019-02-21T03:01:18.726Z,28.93
2019-02-21T03:03:48.039Z,25.70
2019-02-21T03:06:17.360Z,25.60
2019-02-21T03:08:46.675Z,26.17
2019-02-21T03:11:15.986Z,25.87
2019-02-21T03:13:45.291Z,27.73
2019-02-21T03:16:14.612Z,28.70
2019-02-21T03:18:44.247Z,23.43
2019-02-21T03:21:13.566Z,29.17
2019-02-21T03:23:42.870Z,24.43
2019-02-21T03:26:12.173Z,26.63
2019-02-21T03:28:41.488Z,24.90
2019-02-21T03:31:10.818Z,26.60
2019-02-21T03:33:40.120Z,24.13
2019-02-21T03:36:09.452Z,25.20
2019-02-21T03:38:38.809Z,28.97
2019-02-21T03:41:08.148Z,29.23
2019-02-21T03:43:37.470Z,30.00
2019-02-21T03:46:06.782Z,24.17
2019-02-21T03:48:36.096Z,26.50
2019-02-21T03:51:05.420Z,27.03
2019-02-21T03:53:34.903Z,28.53
2019-02-21T03:56:04.215Z,29.77
2019-02-21T03:58:33.576Z,24.70
2019-02-21T04:01:03.072Z,27.23
2019-02-21T04:03:32.393Z,28.60
2019-02-21T04:06:01.790Z,31.50
2019-02-21T04:08:31.119Z,26.50
2019-02-21T04:11:00.446Z,27.80
2019-02-21T04:13:29.770Z,28.23
2019-02-21T04:15:59.070Z,27.47
2019-02-21T04:18:28.396Z,32.00
2019-02-21T04:20:57.777Z,31.00
2019-02-21T04:23:27.091Z,26.90
2019-02-21T04:25:56.402Z,35.50
2019-02-21T04:28:25.723Z,30.83
2019-02-21T04:30:55.092Z,33.23
2019-02-21T04:33:24.422Z,30.03
2019-02-21T04:35:53.710Z,29.83
2019-02-21T04:38:23.014Z,27.77
2019-02-21T04:40:52.327Z,31.37
2019-02-21T04:43:21.658Z,25.40
2019-02-21T04:45:50.957Z,54.13
2019-02-21T04:48:20.350Z,81.73
2019-02-21T04:50:49.631Z,49.93
2019-02-21T04:53:18.955Z,34.20
2019-02-21T04:55:48.330Z,28.37
2019-02-21T04:58:17.659Z,29.67
2019-02-21T05:00:47.030Z,29.93
2019-02-21T05:03:16.328Z,26.43
2019-02-21T05:05:45.631Z,25.63
2019-02-21T05:08:14.954Z,28.57
2019-02-21T05:10:44.268Z,25.03
2019-02-21T05:13:13.646Z,23.87
2019-02-21T05:15:43.040Z,28.13
2019-02-21T05:18:12.352Z,27.43
2019-02-21T05:20:41.746Z,32.13
2019-02-21T05:23:11.067Z,30.47
2019-02-21T05:25:40.379Z,52.90
2019-02-21T05:28:23.351Z,35.60
2019-02-21T05:31:00.259Z,44.87
2019-02-21T05:33:47.866Z,37.10
2019-02-21T05:36:18.907Z,27.30
2019-02-21T05:39:08.135Z,29.83
2019-02-21T05:41:55.347Z,26.80
2019-02-21T05:44:26.380Z,28.63
2019-02-21T05:47:00.509Z,30.80
2019-02-21T05:49:40.229Z,36.13
2019-02-21T05:52:11.170Z,34.83
2019-02-21T05:54:48.024Z,40.93
2019-02-21T05:57:35.296Z,38.60
2019-02-21T06:00:08.703Z,35.83
2019-02-21T06:02:53.387Z,30.90
2019-02-21T06:05:30.214Z,30.57
2019-02-21T06:08:01.211Z,29.53
2019-02-21T06:10:48.539Z,36.03
2019-02-21T06:13:19.475Z,26.10
2019-02-21T06:15:50.434Z,27.77
2019-02-21T06:18:30.367Z,30.90
2019-02-21T06:21:04.145Z,36.07
2019-02-21T06:23:44.346Z,51.77
2019-02-21T06:26:30.456Z,45.87
2019-02-21T06:29:01.437Z,48.77
2019-02-21T06:31:30.735Z,35.87
2019-02-21T06:34:00.066Z,37.13
2019-02-21T06:36:29.389Z,34.57
2019-02-21T06:38:58.763Z,34.53
2019-02-21T06:41:29.833Z,40.90
2019-02-21T06:43:59.095Z,34.73
2019-02-21T06:46:28.416Z,32.47
2019-02-21T06:48:57.722Z,31.77
2019-02-21T06:51:27.037Z,41.00
2019-02-21T06:53:56.351Z,40.20
2019-02-21T06:56:25.670Z,37.73
2019-02-21T06:58:54.970Z,36.03
2019-02-21T07:01:29.048Z,35.07
2019-02-21T07:03:55.310Z,33.00
2019-02-21T07:06:31.803Z,32.27
2019-02-21T07:08:55.681Z,28.43
2019-02-21T07:11:25.440Z,31.50
2019-02-21T07:13:54.892Z,33.77
2019-02-21T07:16:24.215Z,30.33
2019-02-21T07:18:53.538Z,37.93
2019-02-21T07:21:22.926Z,39.20
2019-02-21T07:23:53.268Z,33.50
2019-02-21T07:26:22.617Z,35.83
2019-02-21T07:28:51.963Z,34.17
2019-02-21T07:31:28.891Z,32.17
2019-02-21T07:33:52.286Z,36.10
2019-02-21T07:36:23.882Z,31.00
2019-02-21T07:39:03.544Z,30.80
2019-02-21T07:41:41.659Z,34.50
2019-02-21T07:44:12.357Z,43.60
2019-02-21T07:46:41.954Z,49.17
2019-02-21T07:49:11.367Z,57.37
2019-02-21T07:51:41.473Z,37.03
2019-02-21T07:54:10.954Z,58.67
2019-02-21T07:56:42.318Z,49.30
2019-02-21T07:59:12.177Z,38.77
2019-02-21T08:01:41.767Z,34.70
2019-02-21T08:04:11.106Z,100.60
2019-02-21T08:06:40.418Z,68.70
2019-02-21T08:09:09.735Z,49.03
2019-02-21T08:11:39.047Z,45.57
2019-02-21T08:14:08.429Z,40.37
2019-02-21T08:16:37.741Z,83.60
2019-02-21T08:19:07.126Z,41.60
2019-02-21T08:21:36.540Z,45.10
2019-02-21T08:24:06.046Z,40.53
2019-02-21T08:26:35.370Z,47.53
2019-02-21T08:29:06.131Z,45.80
2019-02-21T08:31:35.791Z,36.87
2019-02-21T08:34:09.671Z,37.67
2019-02-21T08:36:39.139Z,42.73
2019-02-21T08:39:09.510Z,43.67
2019-02-21T08:41:39.214Z,52.57
2019-02-21T08:44:08.533Z,43.97
2019-02-21T08:46:37.846Z,47.13
2019-02-21T08:49:07.238Z,43.67
2019-02-21T08:51:36.598Z,47.67
2019-02-21T08:54:06.180Z,47.43
2019-02-21T08:56:35.567Z,53.50
2019-02-21T08:59:05.051Z,46.80
2019-02-21T09:01:34.371Z,49.77
2019-02-21T09:04:10.921Z,86.13
2019-02-21T09:06:34.703Z,64.03
2019-02-21T09:09:04.954Z,76.43
2019-02-21T09:11:35.886Z,54.43
2019-02-21T09:14:05.425Z,53.63
2019-02-21T09:16:34.770Z,59.23
2019-02-21T09:19:04.091Z,52.33
2019-02-21T09:21:33.401Z,50.13
2019-02-21T09:24:02.731Z,46.27
2019-02-21T09:26:34.615Z,50.23
2019-02-21T09:29:03.042Z,43.67
2019-02-21T09:31:32.919Z,43.33
2019-02-21T09:34:02.240Z,39.23
2019-02-21T09:36:32.522Z,40.13
2019-02-21T09:39:04.880Z,41.97
2019-02-21T09:41:34.260Z,37.57
2019-02-21T09:44:03.570Z,36.67
2019-02-21T09:46:32.883Z,37.50
2019-02-21T09:49:03.008Z,33.97
2019-02-21T09:51:33.543Z,37.40
2019-02-21T09:54:02.869Z,37.37
2019-02-21T09:56:32.294Z,39.70
2019-02-21T09:59:01.615Z,47.70
2019-02-21T10:01:32.007Z,44.40
2019-02-21T10:04:01.418Z,42.37
2019-02-21T10:06:30.721Z,48.93
2019-02-21T10:09:00.018Z,45.20
2019-02-21T10:11:29.322Z,41.10
2019-02-21T10:13:58.723Z,47.13
2019-02-21T10:16:28.031Z,38.30
2019-02-21T10:18:57.342Z,42.40
2019-02-21T10:21:26.658Z,36.77
2019-02-21T10:23:56.727Z,36.70
2019-02-21T10:26:26.299Z,38.13
2019-02-21T10:31:51.859Z,35.40
2019-02-21T10:34:21.925Z,38.40
2019-02-21T10:36:51.363Z,31.50
2019-02-21T10:39:20.740Z,31.30
2019-02-21T10:41:50.103Z,31.73
2019-02-21T10:44:19.599Z,51.07
2019-02-21T10:46:48.902Z,46.67
2019-02-21T10:49:18.223Z,34.83
2019-02-21T10:51:47.522Z,32.93
2019-02-21T10:54:16.955Z,42.20
2019-02-21T10:56:46.263Z,46.50
2019-02-21T10:59:15.690Z,42.43
2019-02-21T11:01:45.035Z,44.93
2019-02-21T11:04:14.487Z,38.60
2019-02-21T11:06:43.795Z,38.87
2019-02-21T11:09:18.982Z,39.70
2019-02-21T11:11:48.471Z,31.33
2019-02-21T11:14:17.810Z,28.80
2019-02-21T11:16:47.133Z,29.13
2019-02-21T11:19:16.485Z,25.73
2019-02-21T11:21:45.802Z,30.43
2019-02-21T11:24:15.118Z,29.77
2019-02-21T11:26:44.522Z,29.80
2019-02-21T11:29:13.930Z,32.40
2019-02-21T11:31:43.247Z,34.67
2019-02-21T11:34:12.671Z,32.27
2019-02-21T11:36:41.994Z,32.47
2019-02-21T11:39:12.338Z,30.20
2019-02-21T11:41:41.671Z,27.77
2019-02-21T11:44:10.983Z,29.33
2019-02-21T11:46:40.307Z,32.07
2019-02-21T11:49:09.794Z,32.17
2019-02-21T11:51:39.131Z,40.30
2019-02-21T11:54:08.447Z,31.47
2019-02-21T11:56:37.766Z,35.40
2019-02-21T11:59:07.081Z,32.27
2019-02-21T12:01:36.413Z,37.37
2019-02-21T12:04:05.719Z,39.20
2019-02-21T12:06:35.044Z,33.63
2019-02-21T12:09:06.794Z,31.67
2019-02-21T12:11:37.728Z,32.13
2019-02-21T12:14:07.086Z,32.57
2019-02-21T12:16:36.410Z,28.40
2019-02-21T12:19:05.744Z,30.83
2019-02-21T12:21:35.072Z,33.80
2019-02-21T12:24:04.355Z,28.67
2019-02-21T12:26:34.766Z,32.00
2019-02-21T12:29:04.065Z,26.53
2019-02-21T12:31:33.385Z,30.87
2019-02-21T12:34:02.704Z,29.43
2019-02-21T12:36:32.017Z,33.33
2019-02-21T12:39:01.630Z,30.90
2019-02-21T12:41:32.578Z,35.17
2019-02-21T12:44:01.894Z,34.57
2019-02-21T12:46:31.218Z,33.27
2019-02-21T12:49:00.753Z,32.37
2019-02-21T12:51:30.104Z,32.67
2019-02-21T12:53:59.435Z,34.70
2019-02-21T12:56:28.758Z,35.07
2019-02-21T12:58:58.067Z,36.10
2019-02-21T13:01:27.398Z,37.10
2019-02-21T13:03:56.710Z,35.97
2019-02-21T13:06:26.031Z,40.20
2019-02-21T13:08:55.352Z,61.23
2019-02-21T13:11:24.667Z,44.73
2019-02-21T13:13:53.975Z,68.73
2019-02-21T13:16:23.284Z,86.57
2019-02-21T13:18:52.613Z,36.40
2019-02-21T13:21:21.922Z,32.70
2019-02-21T13:23:51.242Z,33.63
2019-02-21T13:26:20.559Z,37.37
2019-02-21T13:28:49.871Z,31.63
2019-02-21T13:31:19.184Z,30.40
2019-02-21T13:33:48.503Z,29.30
2019-02-21T13:36:17.807Z,35.27
2019-02-21T13:38:47.131Z,30.60
2019-02-21T13:41:16.434Z,29.17
2019-02-21T13:43:45.763Z,36.43
2019-02-21T13:46:15.059Z,37.83
2019-02-21T13:48:44.446Z,27.40
2019-02-21T13:51:13.778Z,26.83
2019-02-21T13:53:43.105Z,31.40
2019-02-21T13:56:12.413Z,30.47
2019-02-21T13:58:41.737Z,34.03
2019-02-21T14:01:14.536Z,30.60
2019-02-21T14:03:42.087Z,29.57
2019-02-21T14:06:11.390Z,27.17
2019-02-21T14:08:40.799Z,30.97
2019-02-21T14:11:10.112Z,28.40
2019-02-21T14:13:41.063Z,31.63
2019-02-21T14:16:11.446Z,27.10
2019-02-21T14:18:40.811Z,31.53
2019-02-21T14:21:10.140Z,30.80
2019-02-21T14:23:41.066Z,26.53
2019-02-21T14:26:10.370Z,32.70
2019-02-21T14:28:39.690Z,33.73
2019-02-21T14:31:09.014Z,30.47
2019-02-21T14:33:38.335Z,34.93
2019-02-21T14:36:15.241Z,34.50
2019-02-21T14:38:38.651Z,49.13
2019-02-21T14:41:07.966Z,34.37
2019-02-21T14:43:38.383Z,32.30
2019-02-21T14:46:07.702Z,38.50
2019-02-21T14:48:37.015Z,32.90
2019-02-21T14:51:06.335Z,45.73
2019-02-21T14:53:35.656Z,71.40
2019-02-21T14:56:04.978Z,62.23
2019-02-21T14:58:34.318Z,96.10
2019-02-21T15:01:06.307Z,95.47
2019-02-21T15:03:35.616Z,62.40
2019-02-21T15:06:04.933Z,41.93
2019-02-21T15:08:34.314Z,65.10
2019-02-21T15:11:03.646Z,58.37
2019-02-21T15:13:32.959Z,50.97
2019-02-21T15:16:02.290Z,47.73
2019-02-21T15:18:32.673Z,62.57
2019-02-21T15:21:02.006Z,48.90
2019-02-21T15:23:31.395Z,84.47
2019-02-21T15:28:59.970Z,55.27
2019-02-21T15:31:28.456Z,45.10
2019-02-21T15:33:57.775Z,38.40
2019-02-21T15:36:37.658Z,45.37
2019-02-21T15:38:58.118Z,53.07
2019-02-21T15:41:27.419Z,51.00
2019-02-21T15:43:56.731Z,46.93
2019-02-21T15:46:26.051Z,43.07
2019-02-21T15:48:55.363Z,43.77
2019-02-21T15:51:25.778Z,41.77
2019-02-21T15:53:55.152Z,39.03
2019-02-21T15:56:24.478Z,40.57
2019-02-21T15:58:53.774Z,52.53
2019-02-21T16:01:23.095Z,45.13
2019-02-21T16:03:52.402Z,37.67
2019-02-21T16:06:21.735Z,41.37
2019-02-21T16:08:51.050Z,39.90
2019-02-21T16:11:20.374Z,41.70
2019-02-21T16:14:02.067Z,45.47
2019-02-21T16:16:20.725Z,46.07
2019-02-21T16:18:50.150Z,40.73
2019-02-21T16:21:19.474Z,40.97
2019-02-21T16:23:48.775Z,37.20
2019-02-21T16:26:18.120Z,33.20
2019-02-21T16:28:47.426Z,30.10
2019-02-21T16:31:16.756Z,31.77
2019-02-21T16:33:46.066Z,26.73
2019-02-21T16:36:15.430Z,24.73
2019-02-21T16:38:44.747Z,27.33
2019-02-21T16:41:14.097Z,26.97
2019-02-21T16:43:43.456Z,30.67
2019-02-21T16:46:13.842Z,34.03
2019-02-21T16:48:43.146Z,29.80
2019-02-21T16:51:12.467Z,31.40
2019-02-21T16:53:41.854Z,28.20
2019-02-21T16:56:13.355Z,29.37
2019-02-21T16:58:42.944Z,32.27
2019-02-21T17:01:12.414Z,27.93
2019-02-21T17:03:41.734Z,27.70
2019-02-21T17:06:11.127Z,24.83
2019-02-21T17:08:40.431Z,29.90
2019-02-21T17:11:09.883Z,31.63
2019-02-21T17:13:51.528Z,30.13
2019-02-21T17:16:20.995Z,28.23
2019-02-21T17:18:50.313Z,30.60
2019-02-21T17:21:21.041Z,22.83
2019-02-21T17:23:50.700Z,28.67
2019-02-21T17:26:20.098Z,25.90
2019-02-21T17:28:49.447Z,31.77
2019-02-21T17:31:18.767Z,34.67
2019-02-21T17:33:48.103Z,33.70
2019-02-21T17:36:17.413Z,25.03
2019-02-21T17:38:46.778Z,31.30
2019-02-21T17:41:16.117Z,22.70
2019-02-21T17:43:47.885Z,26.57
2019-02-21T17:46:16.446Z,40.90
2019-02-21T17:48:45.782Z,28.30
2019-02-21T17:51:15.141Z,26.27
2019-02-21T17:53:44.531Z,26.87
2019-02-21T17:56:13.838Z,26.67
2019-02-21T17:58:43.245Z,23.03
2019-02-21T18:01:15.040Z,35.73
2019-02-21T18:03:44.394Z,32.40
2019-02-21T18:06:13.712Z,29.70
2019-02-21T18:08:44.113Z,27.33
2019-02-21T18:11:13.429Z,30.37
2019-02-21T18:13:42.818Z,27.47
2019-02-21T18:16:12.137Z,23.90
2019-02-21T18:18:41.486Z,21.20
2019-02-21T18:21:10.800Z,21.73
2019-02-21T18:23:40.322Z,23.87
2019-02-21T18:26:13.090Z,23.53
2019-02-21T18:28:42.408Z,27.03
2019-02-21T18:31:22.258Z,30.70
2019-02-21T18:33:51.587Z,26.97
2019-02-21T18:36:20.903Z,28.33
2019-02-21T18:38:50.221Z,23.37
2019-02-21T18:41:19.525Z,21.80
2019-02-21T18:43:48.847Z,23.07
2019-02-21T18:46:18.162Z,26.73
2019-02-21T18:48:47.570Z,23.30
2019-02-21T18:51:18.872Z,20.80
2019-02-21T18:53:48.146Z,22.37
2019-02-21T18:56:17.536Z,25.13
2019-02-21T18:58:48.083Z,30.97
2019-02-21T19:01:17.428Z,30.63
2019-02-21T19:03:47.356Z,28.77
2019-02-21T19:06:16.770Z,28.47
2019-02-21T19:08:46.125Z,24.27
2019-02-21T19:11:15.505Z,26.33
2019-02-21T19:13:44.937Z,20.87
2019-02-21T19:16:14.367Z,20.00
2019-02-21T19:18:43.798Z,19.60
2019-02-21T19:21:13.156Z,26.27
2019-02-21T19:23:42.743Z,28.53
2019-02-21T19:26:12.445Z,25.33
2019-02-21T19:28:42.886Z,27.87
2019-02-21T19:31:13.131Z,34.63
2019-02-21T19:33:42.470Z,35.30
2019-02-21T19:36:24.678Z,32.87
2019-02-21T19:38:54.025Z,37.03
2019-02-21T19:41:23.511Z,31.77
2019-02-21T19:43:52.921Z,30.70
2019-02-21T19:46:23.321Z,26.50
2019-02-21T19:48:52.821Z,36.90
2019-02-21T19:51:22.152Z,29.63
2019-02-21T19:53:51.702Z,28.33
2019-02-21T19:56:21.026Z,30.83
2019-02-21T19:58:50.333Z,34.23
2019-02-21T20:01:19.781Z,35.40
2019-02-21T20:03:49.258Z,27.00
2019-02-21T20:06:18.775Z,25.70
2019-02-21T20:08:48.250Z,27.53
2019-02-21T20:11:17.654Z,29.63
2019-02-21T20:13:46.977Z,36.33
2019-02-21T20:16:16.588Z,29.17
2019-02-21T20:18:47.609Z,26.23
2019-02-21T20:21:17.014Z,21.67
2019-02-21T20:23:46.502Z,36.40
2019-02-21T20:26:18.585Z,39.73
2019-02-21T20:28:46.834Z,54.53
2019-02-21T20:31:16.147Z,52.93
2019-02-21T20:33:45.535Z,65.50
2019-02-21T20:36:14.874Z,94.83
2019-02-21T20:38:44.200Z,48.37
2019-02-21T20:41:13.576Z,46.10
2019-02-21T20:43:43.226Z,47.90
2019-02-21T20:46:12.754Z,64.53
2019-02-21T20:48:42.083Z,55.87
2019-02-21T20:51:13.942Z,42.77
2019-02-21T20:53:42.517Z,51.87
2019-02-21T20:56:11.835Z,40.47
2019-02-21T20:58:41.166Z,46.33
2019-02-21T21:01:12.529Z,97.33
2019-02-21T21:03:42.170Z,176.70
2019-02-21T21:06:11.507Z,217.17
2019-02-21T21:08:44.239Z,213.97
2019-02-21T21:11:13.615Z,124.00
2019-02-21T21:13:44.153Z,111.37
2019-02-21T21:16:13.670Z,130.03
2019-02-21T21:18:43.083Z,55.57
2019-02-21T21:21:12.399Z,52.53
2019-02-21T21:23:41.736Z,52.60
2019-02-21T21:26:11.051Z,123.90
2019-02-21T21:28:40.370Z,79.03
2019-02-21T21:31:09.683Z,99.33
2019-02-21T21:33:39.010Z,78.23
2019-02-21T21:36:08.331Z,57.60
2019-02-21T21:38:37.678Z,58.63
2019-02-21T21:41:07.070Z,59.97
2019-02-21T21:43:36.415Z,55.63
2019-02-21T21:46:05.793Z,58.13
2019-02-21T21:48:35.404Z,60.30
2019-02-21T21:51:04.870Z,46.57
2019-02-21T21:53:34.275Z,44.03
2019-02-21T21:56:03.598Z,55.17
2019-02-21T21:58:32.957Z,68.80
2019-02-21T22:01:02.416Z,67.87
2019-02-21T22:03:31.738Z,54.33
2019-02-21T22:06:01.047Z,55.80
2019-02-21T22:08:30.479Z,46.30
2019-02-21T22:10:59.963Z,42.90
2019-02-21T22:13:29.289Z,40.00
2019-02-21T22:15:58.605Z,38.10
2019-02-21T22:18:27.932Z,36.43
2019-02-21T22:20:57.221Z,34.63
2019-02-21T22:23:26.558Z,43.50
2019-02-21T22:25:56.834Z,50.30
2019-02-21T22:28:26.459Z,55.60
2019-02-21T22:30:57.984Z,47.10
2019-02-21T22:33:26.989Z,53.13
2019-02-21T22:35:56.306Z,45.30
2019-02-21T22:38:25.626Z,46.07
2019-02-21T22:40:54.941Z,42.80
2019-02-21T22:43:24.251Z,37.50
2019-02-21T22:45:53.567Z,40.50
2019-02-21T22:48:22.894Z,37.53
2019-02-21T22:50:52.323Z,42.90
2019-02-21T22:53:21.657Z,42.87
2019-02-21T22:55:51.152Z,45.43
2019-02-21T22:58:20.473Z,37.87
2019-02-21T23:00:59.709Z,40.37
2019-02-21T23:03:39.526Z,35.23
2019-02-21T23:06:17.411Z,34.90
2019-02-21T23:08:49.810Z,34.27
2019-02-21T23:11:19.113Z,32.50
2019-02-21T23:13:48.667Z,30.63
2019-02-21T23:16:18.144Z,27.20
2019-02-21T23:18:47.645Z,26.37
2019-02-21T23:21:16.946Z,28.47
2019-02-21T23:23:46.276Z,29.70
2019-02-21T23:26:15.760Z,32.50
2019-02-21T23:28:45.062Z,29.77
2019-02-21T23:31:14.372Z,31.73
2019-02-21T23:33:51.460Z,33.20
2019-02-21T23:36:20.772Z,27.53
2019-02-21T23:38:50.098Z,29.20
2019-02-21T23:41:19.415Z,29.90
2019-02-21T23:43:48.818Z,33.13
2019-02-21T23:46:18.335Z,34.83
2019-02-21T23:48:47.749Z,38.80
2019-02-21T23:51:18.106Z,39.47
2019-02-21T23:53:47.406Z,42.37
2019-02-21T23:56:16.730Z,37.87
2019-02-21T23:58:46.051Z,40.37
